Time;durP1;ratioP1;P1;durP2;ratioP2;P2;SDS_P1;SDS_P2;PMS_P1;PMS_P2;Temp;Humidity;BMP_temperature;BMP_pressure;BME280_temperature;BME280_humidity;BME280_pressure;Samples;Min_cycle;Max_cycle;Signal;HPM_P1;HPM_P2
2023/05/02 00:00:51;;;;;;;3.95;2.70;;;;;;;15.23;54.05;100435.47;5111856;28;20024;-61
2023/05/02 00:03:17;;;;;;;5.97;2.90;;;;;;;15.20;53.94;100430.38;5111929;28;20031;-60
2023/05/02 00:05:42;;;;;;;5.32;3.25;;;;;;;15.04;54.42;100407.84;5111786;28;20535;-61
2023/05/02 00:08:08;;;;;;;4.88;3.00;;;;;;;15.17;54.49;100425.31;5111971;28;20053;-62
2023/05/02 00:10:34;;;;;;;3.25;2.50;;;;;;;15.12;54.69;100414.13;5111676;28;20035;-61
2023/05/02 00:12:59;;;;;;;6.35;3.05;;;;;;;15.14;54.95;100422.94;5111723;28;20024;-61
2023/05/02 00:15:26;;;;;;;3.85;2.72;;;;;;;15.06;55.15;100411.22;5111578;28;20031;-61
2023/05/02 00:17:51;;;;;;;4.80;3.03;;;;;;;14.99;55.09;100396.69;5111759;28;20023;-61
2023/05/02 00:20:17;;;;;;;4.07;2.92;;;;;;;15.09;55.29;100427.94;5111970;28;20100;-61
2023/05/02 00:22:42;;;;;;;5.40;2.92;;;;;;;15.05;55.30;100413.06;5111556;28;20035;-62
2023/05/02 00:25:08;;;;;;;5.57;3.63;;;;;;;15.07;55.49;100419.19;5108725;28;20023;-61
2023/05/02 00:27:34;;;;;;;5.25;3.42;;;;;;;15.08;55.66;100409.19;5109854;28;20046;-61
2023/05/02 00:29:59;;;;;;;4.95;2.60;;;;;;;15.06;55.63;100403.97;5111624;28;20019;-61
2023/05/02 00:32:26;;;;;;;6.25;2.92;;;;;;;15.06;56.31;100417.47;5110033;28;20168;-61
2023/05/02 00:34:51;;;;;;;3.70;3.17;;;;;;;15.05;56.16;100410.38;5111256;28;20031;-61
2023/05/02 00:37:17;;;;;;;4.38;3.03;;;;;;;14.98;56.28;100406.63;5111198;28;20035;-61
2023/05/02 00:39:43;;;;;;;5.60;3.50;;;;;;;15.03;56.35;100408.84;5111183;28;20083;-62
2023/05/02 00:42:09;;;;;;;3.15;2.75;;;;;;;14.99;56.35;100402.09;5111105;28;20037;-62
2023/05/02 00:44:34;;;;;;;5.07;3.13;;;;;;;14.99;56.65;100415.59;5111030;28;20044;-62
2023/05/02 00:47:00;;;;;;;4.80;3.55;;;;;;;14.97;57.08;100412.19;5111053;28;20479;-62
2023/05/02 00:49:26;;;;;;;4.45;3.35;;;;;;;14.93;57.10;100416.22;5111176;28;20161;-61
2023/05/02 00:51:55;;;;;;;6.22;3.67;;;;;;;14.93;56.97;100414.34;5110501;28;20110;-61
2023/05/02 00:54:20;;;;;;;4.53;3.20;;;;;;;14.82;57.24;100395.72;5110739;28;20035;-61
2023/05/02 00:56:46;;;;;;;4.65;3.08;;;;;;;14.88;57.51;100410.44;5110690;28;20032;-61
2023/05/02 00:59:12;;;;;;;5.53;3.13;;;;;;;14.86;57.96;100423.25;5110375;28;20027;-61
2023/05/02 01:02:02;;;;;;;6.18;3.30;;;;;;;14.80;58.29;100416.63;5110667;28;20100;-62
2023/05/02 01:04:38;;;;;;;5.88;3.50;;;;;;;14.76;58.34;100425.22;5109582;28;20027;-61
2023/05/02 01:07:28;;;;;;;4.47;3.72;;;;;;;14.69;58.52;100422.31;5110703;28;20376;-61
2023/05/02 01:10:20;;;;;;;3.97;3.30;;;;;;;14.69;58.65;100424.16;5107301;28;20023;-61
2023/05/02 01:13:06;;;;;;;5.93;3.17;;;;;;;14.61;59.17;100427.63;5108322;28;20084;-61
2023/05/02 01:15:35;;;;;;;6.45;3.40;;;;;;;14.54;59.50;100423.88;5108110;28;20109;-61
2023/05/02 01:18:03;;;;;;;3.65;2.90;;;;;;;14.50;59.59;100427.91;5108445;28;20019;-61
2023/05/02 01:20:31;;;;;;;4.68;3.47;;;;;;;14.46;59.79;100417.56;5104737;28;20034;-61
2023/05/02 01:23:02;;;;;;;5.05;3.35;;;;;;;14.40;59.93;100418.19;5108025;28;20027;-60
2023/05/02 01:26:05;;;;;;;5.97;3.42;;;;;;;14.37;60.42;100415.81;5107948;28;20024;-61
2023/05/02 01:28:49;;;;;;;4.18;3.50;;;;;;;14.34;61.05;100418.81;5108255;28;20038;-61
2023/05/02 01:31:15;;;;;;;4.47;3.47;;;;;;;14.29;61.14;100422.00;5108477;28;20020;-61
2023/05/02 01:33:43;;;;;;;5.32;3.45;;;;;;;14.07;61.53;100386.53;5105177;28;20028;-61
2023/05/02 01:36:11;;;;;;;5.70;3.65;;;;;;;14.21;61.22;100418.34;5106459;28;20072;-61
2023/05/02 01:38:38;;;;;;;5.75;3.50;;;;;;;14.18;61.48;100419.50;5108361;28;20054;-61
2023/05/02 01:41:06;;;;;;;4.80;3.47;;;;;;;14.16;62.03;100421.53;5108181;28;20015;-63
2023/05/02 01:43:33;;;;;;;4.53;3.53;;;;;;;14.13;62.15;100408.34;5107908;28;20028;-61
2023/05/02 01:46:03;;;;;;;5.15;4.07;;;;;;;14.14;62.50;100414.56;5105552;28;20036;-61
2023/05/02 01:48:29;;;;;;;4.47;3.30;;;;;;;14.15;63.25;100414.41;5107895;28;20063;-61
2023/05/02 01:50:57;;;;;;;9.35;3.83;;;;;;;14.16;62.92;100415.28;5108035;28;20384;-61
2023/05/02 01:53:26;;;;;;;8.45;4.32;;;;;;;14.19;63.67;100409.56;5106731;28;20088;-62
2023/05/02 01:55:52;;;;;;;4.32;3.92;;;;;;;14.21;63.65;100410.25;5107772;28;20476;-61
2023/05/02 01:58:19;;;;;;;6.75;3.78;;;;;;;14.19;63.65;100402.31;5107944;28;20107;-62
2023/05/02 02:00:45;;;;;;;6.22;4.43;;;;;;;14.24;63.79;100407.25;5107627;28;20027;-62
2023/05/02 02:03:12;;;;;;;4.85;4.18;;;;;;;14.24;63.87;100407.25;5108084;28;20093;-61
2023/05/02 02:05:40;;;;;;;5.22;3.92;;;;;;;14.25;63.88;100404.41;5107628;28;20027;-61
2023/05/02 02:08:06;;;;;;;6.80;4.50;;;;;;;14.16;64.00;100382.91;5108044;28;20047;-61
2023/05/02 02:10:39;;;;;;;8.43;4.15;;;;;;;14.29;64.58;100403.13;5110013;28;20042;-67
2023/05/02 02:13:17;;;;;;;4.55;3.97;;;;;;;14.28;64.58;100395.19;5111857;27;20023;-67
2023/05/02 02:15:47;;;;;;;5.53;4.10;;;;;;;14.26;64.82;100386.38;5111331;28;20038;-66
2023/05/02 02:18:18;;;;;;;5.00;4.22;;;;;;;14.31;64.66;100397.56;5111805;28;20027;-66
2023/05/02 02:20:46;;;;;;;4.68;3.88;;;;;;;14.29;64.39;100397.72;5111537;28;21133;-66
2023/05/02 02:23:13;;;;;;;6.10;4.28;;;;;;;14.21;64.96;100377.88;5111988;28;20066;-67
2023/05/02 02:25:39;;;;;;;6.57;4.22;;;;;;;14.25;64.87;100388.22;5111794;28;20380;-67
2023/05/02 02:28:06;;;;;;;5.80;3.67;;;;;;;14.32;65.35;100394.69;5111697;28;20039;-67
2023/05/02 02:30:32;;;;;;;9.40;4.32;;;;;;;14.34;65.05;100395.38;5110042;28;20084;-67
2023/05/02 02:32:57;;;;;;;6.05;3.90;;;;;;;14.35;65.39;100388.97;5110425;28;20027;-67
2023/05/02 02:35:30;;;;;;;6.05;3.95;;;;;;;14.37;65.45;100395.06;5111284;28;20031;-67
2023/05/02 02:38:09;;;;;;;5.40;4.25;;;;;;;14.35;65.28;100383.59;5111609;28;20059;-66
2023/05/02 02:40:46;;;;;;;8.77;4.45;;;;;;;14.41;65.23;100390.22;5110926;28;20670;-66
2023/05/02 02:43:39;;;;;;;5.07;3.92;;;;;;;14.44;65.34;100387.22;5108718;28;20471;-67
2023/05/02 02:46:25;;;;;;;6.03;4.57;;;;;;;14.48;65.46;100394.00;5109710;28;20039;-67
2023/05/02 02:49:08;;;;;;;6.80;4.45;;;;;;;14.43;65.62;100377.41;5109301;28;20104;-67
2023/05/02 02:51:45;;;;;;;4.63;4.07;;;;;;;14.45;65.54;100381.63;5110806;28;20391;-67
2023/05/02 02:54:28;;;;;;;7.35;4.55;;;;;;;14.57;65.59;100399.28;5110027;28;20031;-67
2023/05/02 02:57:03;;;;;;;6.22;4.63;;;;;;;14.50;65.81;100382.03;5111105;28;20034;-67
2023/05/02 02:59:34;;;;;;;8.10;5.05;;;;;;;14.57;66.14;100393.88;5111160;28;20027;-61
2023/05/02 03:02:07;;;;;;;8.52;4.95;;;;;;;14.52;65.78;100381.88;5110824;28;20012;-61
2023/05/02 03:04:37;;;;;;;6.32;4.68;;;;;;;14.53;66.13;100379.00;5111039;28;20054;-61
2023/05/02 03:07:02;;;;;;;5.22;4.40;;;;;;;14.58;65.75;100392.03;5110747;28;20542;-61
2023/05/02 03:09:40;;;;;;;5.18;4.32;;;;;;;14.56;65.86;100386.78;5110921;28;20115;-61
2023/05/02 03:12:05;;;;;;;7.07;5.00;;;;;;;14.62;66.40;100391.56;5110989;28;20118;-61
2023/05/02 03:14:31;;;;;;;6.50;4.72;;;;;;;14.65;66.00;100401.19;5109007;28;20108;-61
2023/05/02 03:16:56;;;;;;;10.63;5.82;;;;;;;14.68;66.33;100393.63;5110283;28;20369;-60
2023/05/02 03:19:22;;;;;;;6.93;4.93;;;;;;;14.67;65.99;100401.88;5109908;28;20066;-61
2023/05/02 03:21:47;;;;;;;4.88;4.38;;;;;;;14.63;66.11;100395.09;5109636;28;20042;-61
2023/05/02 03:24:13;;;;;;;6.63;4.60;;;;;;;14.67;65.96;100396.47;5110835;28;20036;-61
2023/05/02 03:26:39;;;;;;;7.63;5.00;;;;;;;14.67;65.85;100399.19;5110455;28;20020;-61
2023/05/02 03:29:04;;;;;;;5.75;4.60;;;;;;;14.64;65.73;100394.94;5110255;28;20030;-61
2023/05/02 03:31:30;;;;;;;8.98;5.03;;;;;;;14.47;65.82;100357.19;5110838;28;20020;-61
2023/05/02 03:33:55;;;;;;;5.97;4.40;;;;;;;14.63;65.84;100405.88;5110471;28;20027;-61
2023/05/02 03:36:21;;;;;;;7.10;4.68;;;;;;;14.64;65.76;100400.31;5110460;27;20027;-61
2023/05/02 03:38:46;;;;;;;8.18;4.95;;;;;;;14.67;65.61;100404.59;5110146;28;20016;-61
2023/05/02 03:41:12;;;;;;;6.15;4.30;;;;;;;14.66;65.64;100408.28;5110163;28;20408;-61
2023/05/02 03:43:37;;;;;;;7.90;5.15;;;;;;;14.65;65.26;100404.75;5109926;28;20055;-62
2023/05/02 03:46:07;;;;;;;8.65;5.30;;;;;;;14.59;65.47;100394.56;5110419;28;20023;-61
2023/05/02 03:48:33;;;;;;;7.43;5.13;;;;;;;14.60;65.38;100387.31;5109733;28;20480;-61
2023/05/02 03:51:01;;;;;;;6.13;4.95;;;;;;;14.47;65.40;100378.78;5108748;28;20028;-61
2023/05/02 03:53:26;;;;;;;6.68;4.88;;;;;;;14.65;65.73;100396.66;5110211;28;20027;-61
2023/05/02 03:55:52;;;;;;;7.60;5.63;;;;;;;14.50;65.64;100383.84;5108919;28;20032;-60
2023/05/02 03:58:18;;;;;;;5.90;5.07;;;;;;;14.64;65.53;100413.00;5109493;28;20485;-61
2023/05/02 04:00:43;;;;;;;8.25;5.68;;;;;;;14.61;65.75;100410.63;5110026;28;20485;-62
2023/05/02 04:03:10;;;;;;;7.40;5.18;;;;;;;14.46;65.36;100388.75;5110191;28;20034;-61
2023/05/02 04:05:35;;;;;;;7.30;4.97;;;;;;;14.50;65.69;100397.34;5108901;28;20034;-60
2023/05/02 04:08:01;;;;;;;5.72;4.72;;;;;;;14.61;65.64;100414.13;5108259;28;20020;-61
2023/05/02 04:10:27;;;;;;;9.52;4.95;;;;;;;14.58;65.57;100405.53;5110293;28;20023;-61
2023/05/02 04:12:52;;;;;;;9.45;5.32;;;;;;;14.58;65.50;100406.38;5107939;28;20039;-61
2023/05/02 04:15:18;;;;;;;8.38;5.10;;;;;;;14.63;65.09;100416.69;5109626;28;20024;-62
2023/05/02 04:17:43;;;;;;;7.25;5.43;;;;;;;14.68;64.95;100417.06;5109668;28;20122;-61
2023/05/02 04:20:10;;;;;;;7.78;4.65;;;;;;;14.65;64.55;100409.28;5109293;28;20023;-61
2023/05/02 04:22:38;;;;;;;11.15;4.95;;;;;;;14.74;64.18;100422.66;5107650;28;20402;-61
2023/05/02 04:25:05;;;;;;;8.15;5.55;;;;;;;14.70;64.01;100405.09;5109185;28;20028;-61
2023/05/02 04:27:30;;;;;;;7.57;4.55;;;;;;;14.84;63.49;100423.44;5109530;28;20028;-62
2023/05/02 04:29:56;;;;;;;4.90;4.13;;;;;;;14.91;63.28;100421.78;5106598;28;20030;-61
2023/05/02 04:32:22;;;;;;;6.75;4.38;;;;;;;14.94;62.50;100418.78;5109280;28;20066;-62
2023/05/02 04:34:47;;;;;;;7.53;4.32;;;;;;;15.05;62.36;100423.88;5108672;28;20110;-61
2023/05/02 04:37:13;;;;;;;6.28;4.35;;;;;;;15.02;61.75;100402.59;5109132;28;20431;-61
2023/05/02 04:39:38;;;;;;;5.35;4.22;;;;;;;15.03;61.70;100398.88;5108764;28;20028;-61
2023/05/02 04:42:04;;;;;;;6.72;4.57;;;;;;;14.99;61.49;100388.59;5109194;28;20039;-61
2023/05/02 04:44:30;;;;;;;8.52;4.80;;;;;;;15.29;60.98;100434.81;5107056;28;20048;-61
2023/05/02 04:46:55;;;;;;;8.10;5.13;;;;;;;15.36;61.13;100432.31;5107054;28;20072;-61
2023/05/02 04:49:22;;;;;;;5.05;3.90;;;;;;;15.38;61.00;100438.44;5107354;28;20047;-61
2023/05/02 04:51:47;;;;;;;5.65;4.32;;;;;;;15.43;60.46;100436.09;5108468;28;20140;-62
2023/05/02 04:54:14;;;;;;;9.52;4.45;;;;;;;15.49;60.00;100441.69;5107193;28;20387;-62
2023/05/02 04:56:40;;;;;;;7.95;4.70;;;;;;;15.54;59.76;100433.06;5108061;28;20380;-62
2023/05/02 04:59:05;;;;;;;6.63;4.57;;;;;;;15.51;59.40;100422.63;5108532;27;20035;-61
2023/05/02 05:01:31;;;;;;;5.32;3.95;;;;;;;15.57;59.24;100428.19;5107035;28;20085;-61
2023/05/02 05:03:56;;;;;;;7.03;5.10;;;;;;;15.67;59.44;100433.47;5108539;28;20074;-61
2023/05/02 05:06:22;;;;;;;5.47;4.22;;;;;;;15.80;58.97;100445.50;5107781;28;20502;-61
2023/05/02 05:08:48;;;;;;;9.68;4.07;;;;;;;15.89;58.42;100432.84;5108146;28;20454;-62
2023/05/02 05:11:14;;;;;;;7.95;4.55;;;;;;;16.00;58.08;100434.41;5106397;28;20029;-61
2023/05/02 05:13:40;;;;;;;6.47;4.15;;;;;;;16.10;57.92;100437.78;5106816;28;20475;-62
2023/05/02 05:16:06;;;;;;;7.43;4.50;;;;;;;16.12;57.07;100433.06;5103987;28;20076;-62
2023/05/02 05:18:39;;;;;;;10.35;4.00;;;;;;;16.22;56.80;100444.59;5107340;28;20434;-61
2023/05/02 05:21:08;;;;;;;8.57;5.05;;;;;;;16.37;56.50;100449.16;5107729;28;20114;-62
2023/05/02 05:23:34;;;;;;;6.40;4.63;;;;;;;16.23;56.94;100430.03;5106895;28;20039;-61
2023/05/02 05:26:14;;;;;;;9.25;4.60;;;;;;;16.32;56.57;100439.84;5106286;28;20111;-62
2023/05/02 05:28:40;;;;;;;7.75;4.43;;;;;;;16.40;56.29;100458.78;5105658;28;20063;-61
2023/05/02 05:31:07;;;;;;;6.03;3.70;;;;;;;16.43;56.33;100463.91;5107579;28;20024;-61
2023/05/02 05:33:33;;;;;;;6.75;3.40;;;;;;;16.35;56.25;100442.22;5107954;28;20420;-61
2023/05/02 05:36:06;;;;;;;5.15;4.22;;;;;;;16.52;56.17;100463.75;5107348;28;20570;-61
2023/05/02 05:38:32;;;;;;;5.28;3.80;;;;;;;16.59;56.22;100466.63;5106966;28;20030;-62
2023/05/02 05:40:57;;;;;;;7.50;4.18;;;;;;;16.67;56.22;100466.63;5107645;28;20027;-61
2023/05/02 05:43:23;;;;;;;4.55;3.80;;;;;;;16.78;55.92;100464.44;5107659;28;20031;-61
2023/05/02 05:45:51;;;;;;;5.80;3.80;;;;;;;16.92;55.93;100471.84;5106982;28;20092;-61
2023/05/02 05:48:17;;;;;;;9.15;4.30;;;;;;;17.07;55.20;100474.72;5107068;28;20053;-61
2023/05/02 05:50:42;;;;;;;7.20;4.70;;;;;;;17.14;54.74;100465.72;5107601;28;20483;-61
2023/05/02 05:53:08;;;;;;;7.15;4.10;;;;;;;17.23;54.61;100450.28;5107410;28;20042;-61
2023/05/02 05:55:33;;;;;;;5.13;4.10;;;;;;;17.34;54.49;100449.88;5107806;28;20030;-62
2023/05/02 05:57:58;;;;;;;9.43;4.20;;;;;;;17.54;54.17;100467.50;5107324;28;20026;-62
2023/05/02 06:00:24;;;;;;;6.35;4.05;;;;;;;17.52;53.69;100443.25;5106925;28;20023;-62
2023/05/02 06:02:50;;;;;;;8.82;3.90;;;;;;;17.70;53.64;100445.69;5104030;28;20028;-62
2023/05/02 06:05:16;;;;;;;5.55;3.42;;;;;;;17.88;53.32;100449.00;5105511;28;20087;-61
2023/05/02 06:07:41;;;;;;;5.63;4.57;;;;;;;18.10;52.98;100470.75;5105748;28;20388;-61
2023/05/02 06:10:08;;;;;;;6.85;3.50;;;;;;;18.27;52.53;100462.50;5107343;28;20023;-61
2023/05/02 06:12:34;;;;;;;5.40;3.83;;;;;;;18.45;52.37;100460.38;5107495;28;20349;-62
2023/05/02 06:15:00;;;;;;;13.20;4.20;;;;;;;18.60;51.76;100461.28;5104932;28;20161;-61
2023/05/02 06:17:25;;;;;;;6.50;3.75;;;;;;;18.74;51.91;100468.63;5101995;28;20613;-61
2023/05/02 06:19:51;;;;;;;8.50;4.25;;;;;;;18.88;51.32;100476.81;5104894;28;20030;-62
2023/05/02 06:22:17;;;;;;;3.72;3.30;;;;;;;18.98;50.25;100469.22;5106088;28;20134;-62
2023/05/02 06:24:42;;;;;;;4.43;3.53;;;;;;;19.20;49.03;100481.94;5104747;28;20027;-62
2023/05/02 06:27:07;;;;;;;7.97;3.50;;;;;;;19.35;48.57;100471.09;5107385;28;20016;-62
2023/05/02 06:29:33;;;;;;;4.13;3.30;;;;;;;19.43;48.54;100465.53;5107241;28;20032;-61
2023/05/02 06:31:58;;;;;;;4.35;3.40;;;;;;;19.63;47.59;100481.13;5104201;28;20080;-62
2023/05/02 06:34:24;;;;;;;4.18;2.90;;;;;;;19.69;47.53;100465.91;5107310;28;20030;-62
2023/05/02 06:36:55;;;;;;;5.50;3.80;;;;;;;19.78;47.35;100465.63;5107128;28;20036;-62
2023/05/02 06:39:21;;;;;;;6.38;3.67;;;;;;;19.93;46.66;100480.03;5107759;28;20024;-62
2023/05/02 06:41:47;;;;;;;4.82;3.20;;;;;;;19.93;46.69;100484.66;5105938;28;20184;-61
2023/05/02 06:44:13;;;;;;;5.20;3.75;;;;;;;19.92;46.71;100491.97;5107084;28;20130;-61
2023/05/02 06:46:38;;;;;;;4.68;3.60;;;;;;;19.84;46.90;100486.66;5107111;28;20391;-61
2023/05/02 06:49:03;;;;;;;5.80;3.72;;;;;;;19.80;46.69;100490.75;5106930;28;20467;-62
2023/05/02 06:51:30;;;;;;;6.15;3.60;;;;;;;19.70;47.21;100484.75;5106091;28;20123;-63
2023/05/02 06:53:56;;;;;;;5.93;3.70;;;;;;;19.70;46.97;100489.38;5101402;28;20027;-62
2023/05/02 06:56:24;;;;;;;5.10;3.47;;;;;;;19.55;46.80;100469.50;5108615;28;20383;-62
2023/05/02 06:58:50;;;;;;;4.72;3.90;;;;;;;19.56;46.86;100484.78;5108604;27;20027;-62
2023/05/02 07:01:15;;;;;;;5.22;3.72;;;;;;;19.45;47.05;100487.97;5107438;27;20027;-63
2023/05/02 07:03:41;;;;;;;3.70;3.35;;;;;;;19.38;47.38;100496.03;5111073;27;20030;-62
2023/05/02 07:06:06;;;;;;;5.20;3.72;;;;;;;19.28;47.54;100495.47;5108229;28;20392;-62
2023/05/02 07:08:32;;;;;;;6.70;3.67;;;;;;;19.19;47.56;100495.72;5111622;27;20063;-62
2023/05/02 07:10:57;;;;;;;5.65;3.40;;;;;;;19.08;48.19;100490.69;5104452;27;20026;-62
2023/05/02 07:13:22;;;;;;;5.70;3.60;;;;;;;18.97;48.75;100491.16;5105284;28;20426;-62
2023/05/02 07:15:48;;;;;;;4.60;3.47;;;;;;;18.94;49.04;100502.41;5109355;28;20032;-62
2023/05/02 07:18:13;;;;;;;4.45;3.67;;;;;;;18.71;49.43;100475.28;5110260;28;20129;-62
2023/05/02 07:20:41;;;;;;;6.22;3.83;;;;;;;18.76;49.95;100499.19;5106891;27;20028;-62
2023/05/02 07:23:07;;;;;;;5.63;3.83;;;;;;;18.72;50.53;100492.41;5111256;27;20030;-62
2023/05/02 07:25:33;;;;;;;4.97;4.10;;;;;;;18.66;50.69;100499.41;5109548;28;20060;-62
2023/05/02 07:27:58;;;;;;;5.97;4.32;;;;;;;18.62;51.03;100508.97;5110791;27;20024;-62
2023/05/02 07:30:24;;;;;;;9.27;4.50;;;;;;;18.52;50.74;100489.34;5107818;28;20030;-63
2023/05/02 07:32:49;;;;;;;8.55;4.90;;;;;;;18.58;51.29;100504.94;5108871;28;20331;-62
2023/05/02 07:35:15;;;;;;;7.45;4.05;;;;;;;18.57;51.11;100510.53;5109891;28;20059;-62
2023/05/02 07:37:40;;;;;;;5.75;3.75;;;;;;;18.59;51.67;100508.47;5109488;28;20023;-62
2023/05/02 07:40:07;;;;;;;6.55;4.55;;;;;;;18.56;51.49;100506.97;5109312;28;20050;-63
2023/05/02 07:42:35;;;;;;;4.90;4.20;;;;;;;18.57;51.86;100505.94;5109269;28;20362;-62
2023/05/02 07:45:00;;;;;;;5.90;4.68;;;;;;;18.56;52.30;100487.94;5109260;28;20323;-62
2023/05/02 07:47:26;;;;;;;6.00;4.35;;;;;;;18.67;51.89;100503.00;5107874;28;20036;-62
2023/05/02 07:49:53;;;;;;;5.40;3.72;;;;;;;18.74;52.01;100498.50;5108636;28;20106;-62
2023/05/02 07:52:19;;;;;;;8.73;4.30;;;;;;;18.85;51.63;100509.78;5109446;27;20440;-62
2023/05/02 07:54:46;;;;;;;10.48;4.13;;;;;;;18.96;51.64;100498.47;5108082;27;20032;-62
2023/05/02 07:57:12;;;;;;;5.60;3.40;;;;;;;19.11;51.59;100506.66;5106851;28;20436;-62
2023/05/02 07:59:38;;;;;;;6.38;4.32;;;;;;;19.21;51.32;100509.94;5107146;27;20118;-62
2023/05/02 08:02:03;;;;;;;7.45;3.85;;;;;;;19.30;50.78;100496.13;5104244;27;20019;-62
2023/05/02 08:04:29;;;;;;;8.10;4.05;;;;;;;19.37;50.99;100490.78;5105701;28;20398;-63
2023/05/02 08:06:55;;;;;;;5.28;3.78;;;;;;;19.46;51.03;100495.94;5107768;28;20016;-62
2023/05/02 08:09:21;;;;;;;7.57;3.83;;;;;;;19.53;50.98;100488.72;5111739;27;20037;-62
2023/05/02 08:11:46;;;;;;;8.77;4.05;;;;;;;19.67;50.87;100493.31;5109712;28;20023;-63
2023/05/02 08:14:14;;;;;;;5.55;4.15;;;;;;;19.81;50.78;100481.59;5108485;28;20035;-62
2023/05/02 08:16:40;;;;;;;7.25;3.95;;;;;;;20.05;50.80;100485.84;5109316;28;20038;-62
2023/05/02 08:19:06;;;;;;;6.38;3.45;;;;;;;20.30;50.14;100481.75;5109029;28;20024;-62
2023/05/02 08:21:31;;;;;;;4.40;3.72;;;;;;;20.52;49.60;100494.38;5109011;28;20491;-62
2023/05/02 08:24:00;;;;;;;5.78;3.58;;;;;;;20.67;49.51;100486.94;5108954;28;20035;-62
2023/05/02 08:26:26;;;;;;;4.97;3.53;;;;;;;20.83;49.60;100481.22;5109403;27;20061;-62
2023/05/02 08:28:52;;;;;;;7.78;3.47;;;;;;;21.09;49.08;100489.66;5108940;28;20031;-62
2023/05/02 08:31:18;;;;;;;5.18;3.53;;;;;;;21.27;48.54;100484.56;5109246;28;20470;-62
2023/05/02 08:33:44;;;;;;;7.50;3.55;;;;;;;21.44;47.58;100475.00;5109062;28;20036;-62
2023/05/02 08:36:11;;;;;;;5.18;3.30;;;;;;;21.59;47.22;100478.47;5109270;28;20023;-62
2023/05/02 08:38:36;;;;;;;6.75;3.20;;;;;;;21.65;46.46;100465.88;5109262;28;20055;-63
2023/05/02 08:41:02;;;;;;;5.57;3.10;;;;;;;21.88;46.04;100470.03;5108902;28;20062;-62
2023/05/02 08:43:31;;;;;;;5.95;2.83;;;;;;;21.98;45.27;100455.97;5108860;28;20027;-68
2023/05/02 08:45:58;;;;;;;3.25;2.90;;;;;;;22.19;44.73;100467.59;5108472;28;20039;-68
2023/05/02 08:48:25;;;;;;;5.95;2.67;;;;;;;22.22;44.27;100444.50;5109077;28;20035;-68
2023/05/02 08:50:53;;;;;;;5.05;3.00;;;;;;;22.48;42.94;100471.06;5108862;28;20089;-68
2023/05/02 08:53:18;;;;;;;5.47;2.63;;;;;;;22.64;42.78;100457.88;5108921;28;20026;-68
2023/05/02 08:55:45;;;;;;;8.15;2.88;;;;;;;22.82;42.12;100468.19;5108561;28;20405;-68
2023/05/02 08:58:11;;;;;;;4.95;2.65;;;;;;;22.86;41.66;100448.38;5109091;28;20076;-68
2023/05/02 09:00:41;;;;;;;5.35;2.50;;;;;;;23.12;41.30;100467.53;5108633;28;20023;-68
2023/05/02 09:03:15;;;;;;;6.38;2.70;;;;;;;23.28;40.63;100456.16;5107305;28;20069;-68
2023/05/02 09:05:41;;;;;;;3.95;2.33;;;;;;;23.41;40.06;100466.28;5108413;28;20102;-68
2023/05/02 09:08:08;;;;;;;5.15;2.30;;;;;;;23.54;39.65;100452.56;5109208;28;20204;-68
2023/05/02 09:10:37;;;;;;;5.15;2.17;;;;;;;23.65;38.72;100455.47;5108653;28;20039;-68
2023/05/02 09:13:35;;;;;;;8.13;2.65;;;;;;;23.67;38.56;100444.28;5106927;28;20070;-68
2023/05/02 09:16:09;;;;;;;11.93;2.33;;;;;;;23.81;37.37;100455.00;5107836;28;20496;-68
2023/05/02 09:18:35;;;;;;;9.88;2.90;;;;;;;23.84;37.08;100465.50;5107982;28;20032;-68
2023/05/02 09:21:05;;;;;;;9.55;2.83;;;;;;;23.74;37.07;100437.75;5107601;28;20035;-68
2023/05/02 09:23:39;;;;;;;18.38;3.20;;;;;;;23.90;37.18;100444.63;5108438;28;20035;-68
2023/05/02 09:26:11;;;;;;;15.70;2.80;;;;;;;23.98;36.91;100449.88;5106901;28;20034;-68
2023/05/02 09:28:39;;;;;;;9.48;2.53;;;;;;;23.88;36.60;100422.91;5108013;28;20031;-68
2023/05/02 09:31:10;;;;;;;16.00;3.00;;;;;;;24.07;36.50;100460.38;5108650;28;20110;-68
2023/05/02 09:33:37;;;;;;;7.95;2.58;;;;;;;24.10;36.26;100468.16;5106608;28;20471;-68
2023/05/02 09:36:03;;;;;;;8.73;2.72;;;;;;;24.00;36.21;100461.47;5107928;28;20032;-68
2023/05/02 09:38:29;;;;;;;8.30;2.63;;;;;;;23.96;36.09;100468.44;5106644;28;20024;-68
2023/05/02 09:40:55;;;;;;;4.85;2.20;;;;;;;23.84;36.66;100460.03;5108034;28;20408;-69
2023/05/02 09:43:21;;;;;;;8.52;2.70;;;;;;;23.80;36.68;100469.72;5107955;28;20023;-68
2023/05/02 09:46:04;;;;;;;10.63;2.67;;;;;;;23.69;36.85;100453.97;5107423;28;20047;-69
2023/05/02 09:48:30;;;;;;;6.43;2.80;;;;;;;23.67;37.44;100447.03;5107959;28;20032;-68
2023/05/02 09:50:56;;;;;;;10.82;2.95;;;;;;;23.63;37.42;100452.09;5107951;28;20023;-68
2023/05/02 09:53:26;;;;;;;7.88;2.83;;;;;;;23.70;37.49;100452.91;5108669;28;20030;-68
2023/05/02 09:56:00;;;;;;;8.95;2.75;;;;;;;23.77;37.84;100450.97;5108042;28;20051;-68
2023/05/02 09:58:25;;;;;;;7.53;2.28;;;;;;;23.86;37.59;100455.16;5107978;28;20030;-69
2023/05/02 10:00:51;;;;;;;6.93;2.70;;;;;;;23.92;37.40;100456.19;5107719;28;20039;-68
2023/05/02 10:03:18;;;;;;;7.85;2.83;;;;;;;23.85;37.29;100437.03;5107817;28;20019;-68
2023/05/02 10:05:45;;;;;;;5.53;2.70;;;;;;;24.01;37.74;100439.31;5107871;28;20106;-68
2023/05/02 10:08:12;;;;;;;9.55;2.75;;;;;;;24.12;36.88;100438.63;5107775;28;20023;-68
2023/05/02 10:10:49;;;;;;;5.55;2.72;;;;;;;24.06;37.04;100414.00;5107593;28;20024;-68
2023/05/02 10:13:18;;;;;;;12.68;2.53;;;;;;;24.29;36.81;100442.56;5107914;28;20027;-68
2023/05/02 10:15:44;;;;;;;11.52;2.40;;;;;;;24.36;36.70;100446.09;5107440;28;20039;-68
2023/05/02 10:18:20;;;;;;;9.13;2.80;;;;;;;24.45;36.98;100450.22;5107802;28;20115;-68
2023/05/02 10:21:10;;;;;;;9.07;2.45;;;;;;;24.50;36.07;100440.50;5107650;28;20115;-68
2023/05/02 10:23:40;;;;;;;5.53;2.13;;;;;;;24.55;35.88;100443.41;5107658;28;20033;-68
2023/05/02 10:26:05;;;;;;;7.25;2.92;;;;;;;24.51;36.02;100428.47;5107781;28;20031;-68
2023/05/02 10:28:32;;;;;;;10.07;3.00;;;;;;;24.66;36.34;100448.25;5107378;28;20028;-68
2023/05/02 10:30:59;;;;;;;10.98;2.33;;;;;;;24.66;35.68;100456.47;5109082;28;20063;-68
2023/05/02 10:33:25;;;;;;;9.68;2.50;;;;;;;24.67;35.73;100448.03;5110407;28;20062;-68
2023/05/02 10:35:50;;;;;;;13.95;2.60;;;;;;;24.72;35.73;100450.91;5110967;28;20395;-68
2023/05/02 10:38:19;;;;;;;6.90;2.22;;;;;;;24.76;35.79;100443.09;5111823;28;20399;-69
2023/05/02 10:41:09;;;;;;;8.82;2.30;;;;;;;24.81;35.77;100451.47;5111369;28;20103;-68
2023/05/02 10:43:36;;;;;;;9.57;2.35;;;;;;;24.82;35.63;100432.03;5111473;28;20024;-68
2023/05/02 10:46:02;;;;;;;17.52;2.63;;;;;;;24.85;35.84;100445.31;5110837;28;20484;-68
2023/05/02 10:48:29;;;;;;;11.27;2.78;;;;;;;24.87;35.99;100443.22;5111245;28;20027;-68
2023/05/02 10:50:56;;;;;;;4.53;2.20;;;;;;;24.87;35.82;100420.41;5111245;28;20015;-68
2023/05/02 10:53:29;;;;;;;3.70;1.95;;;;;;;24.97;35.86;100428.97;5111371;28;20024;-68
2023/05/02 10:56:14;;;;;;;8.45;2.00;;;;;;;25.03;36.06;100431.66;5111187;28;20028;-68
2023/05/02 10:58:42;;;;;;;12.27;2.53;;;;;;;25.10;36.20;100437.94;5110867;28;20024;-68
2023/05/02 11:01:29;;;;;;;10.60;2.13;;;;;;;25.14;35.74;100430.06;5111422;28;20587;-68
2023/05/02 11:04:03;;;;;;;9.20;2.80;;;;;;;25.13;35.57;100431.13;5110962;28;20024;-68
2023/05/02 11:06:32;;;;;;;11.30;2.55;;;;;;;25.15;35.48;100432.59;5111095;28;20047;-68
2023/05/02 11:09:13;;;;;;;9.73;2.10;;;;;;;25.19;35.45;100431.09;5110482;28;20109;-68
2023/05/02 11:11:47;;;;;;;7.35;2.47;;;;;;;25.23;35.14;100424.06;5111023;28;20498;-68
2023/05/02 11:14:39;;;;;;;7.03;2.58;;;;;;;25.24;35.16;100417.50;5110810;28;20392;-68
2023/05/02 11:17:06;;;;;;;8.40;2.25;;;;;;;25.22;35.28;100427.88;5098135;28;20047;-68
2023/05/02 11:19:38;;;;;;;4.70;2.20;;;;;;;25.15;35.03;100418.84;5092389;28;20023;-68
2023/05/02 11:22:23;;;;;;;4.97;2.33;;;;;;;25.09;35.15;100422.53;5110680;28;20060;-68
2023/05/02 11:24:50;;;;;;;10.13;2.40;;;;;;;25.06;35.38;100424.88;5110834;28;20019;-68
2023/05/02 11:27:37;;;;;;;5.65;2.15;;;;;;;25.06;35.34;100422.13;5110852;28;20353;-68
2023/05/02 11:30:12;;;;;;;9.07;2.10;;;;;;;25.12;35.84;100423.97;5110198;28;20038;-68